createdAt,value
2022-08-26T00:02:00.761Z,64.42
2022-08-26T00:07:00.766Z,65.00
2022-08-26T00:11:59.646Z,65.60
2022-08-26T00:16:58.980Z,66.26
2022-08-26T00:22:00.282Z,66.28
2022-08-26T00:27:00.526Z,66.00
2022-08-26T00:31:59.835Z,66.60
2022-08-26T00:36:59.249Z,67.41
2022-08-26T00:42:00.852Z,68.47
2022-08-26T00:47:09.463Z,69.84
2022-08-26T00:52:13.377Z,68.13
2022-08-26T00:57:19.896Z,68.07
2022-08-26T01:02:20.704Z,68.73
2022-08-26T01:07:21.638Z,69.07
2022-08-26T01:12:21.970Z,69.43
2022-08-26T01:17:22.245Z,69.02
2022-08-26T01:22:28.663Z,68.57
2022-08-26T01:27:32.628Z,68.93
2022-08-26T01:32:36.450Z,69.76
2022-08-26T01:37:42.261Z,70.17
2022-08-26T01:42:44.195Z,70.00
2022-08-26T01:47:44.337Z,70.36
2022-08-26T01:52:54.391Z,69.94
2022-08-26T01:57:59.415Z,70.22
2022-08-26T02:03:15.775Z,70.72
2022-08-26T02:08:19.029Z,70.47
2022-08-26T02:13:25.557Z,71.30
2022-08-26T02:18:25.449Z,72.07
2022-08-26T02:23:25.965Z,71.29
2022-08-26T02:28:26.803Z,72.16
2022-08-26T02:33:26.223Z,72.86
2022-08-26T02:38:27.779Z,73.17
2022-08-26T02:43:31.772Z,72.74
2022-08-26T02:48:33.362Z,73.07
2022-08-26T02:53:35.644Z,73.19
2022-08-26T02:58:37.902Z,73.64
2022-08-26T03:03:37.589Z,73.90
2022-08-26T03:08:38.361Z,74.07
2022-08-26T03:13:37.362Z,74.24
2022-08-26T03:18:37.214Z,74.31
2022-08-26T03:23:38.562Z,74.61
2022-08-26T03:28:58.301Z,74.94
2022-08-26T03:33:59.306Z,74.60
2022-08-26T03:38:58.831Z,74.66
2022-08-26T03:44:01.531Z,74.66
2022-08-26T03:49:02.352Z,74.82
2022-08-26T03:54:04.989Z,75.09
2022-08-26T03:59:08.269Z,75.69
2022-08-26T04:04:07.424Z,76.09
2022-08-26T04:09:11.632Z,76.07
2022-08-26T04:14:17.594Z,75.97
2022-08-26T04:19:20.714Z,77.39
2022-08-26T04:24:22.219Z,77.37
2022-08-26T04:29:25.843Z,76.75
2022-08-26T04:34:28.393Z,76.79
2022-08-26T04:39:29.495Z,76.44
2022-08-26T04:44:31.783Z,76.36
2022-08-26T04:49:35.485Z,76.38
2022-08-26T04:54:35.235Z,75.86
2022-08-26T04:59:38.975Z,75.68
2022-08-26T05:04:39.458Z,75.76
2022-08-26T05:09:40.357Z,75.60
2022-08-26T05:14:41.589Z,75.31
2022-08-26T05:19:43.087Z,74.70
2022-08-26T05:24:43.400Z,74.46
2022-08-26T05:29:44.397Z,74.29
2022-08-26T05:34:44.139Z,74.14
2022-08-26T05:39:51.111Z,73.72
2022-08-26T05:44:56.209Z,73.95
2022-08-26T05:49:56.321Z,74.66
2022-08-26T05:54:55.358Z,73.90
2022-08-26T06:00:01.633Z,73.49
2022-08-26T06:05:02.846Z,72.68
2022-08-26T06:10:30.555Z,71.86
2022-08-26T06:15:22.063Z,71.39
2022-08-26T06:20:23.821Z,70.76
2022-08-26T06:25:40.972Z,69.95
2022-08-26T06:30:43.395Z,69.29
2022-08-26T06:35:46.246Z,67.98
2022-08-26T06:40:49.736Z,67.10
2022-08-26T06:45:50.075Z,66.39
2022-08-26T06:50:50.647Z,65.06
2022-08-26T06:55:51.796Z,64.28
2022-08-26T07:00:53.116Z,63.85
2022-08-26T07:05:53.520Z,63.27
2022-08-26T07:10:52.347Z,62.54
2022-08-26T07:15:57.379Z,61.56
2022-08-26T07:20:57.028Z,60.50
2022-08-26T07:25:55.908Z,59.79
2022-08-26T07:30:56.308Z,59.29
2022-08-26T07:35:57.307Z,58.79
2022-08-26T07:40:56.359Z,58.84
2022-08-26T07:45:56.000Z,58.29
2022-08-26T07:50:55.467Z,57.37
2022-08-26T07:55:59.147Z,57.36
2022-08-26T08:00:59.451Z,56.80
2022-08-26T08:05:59.887Z,56.32
2022-08-26T08:10:59.634Z,56.30
2022-08-26T08:15:58.601Z,56.45
2022-08-26T08:21:10.827Z,56.25
2022-08-26T08:26:17.195Z,55.47
2022-08-26T08:31:52.415Z,55.64
2022-08-26T08:36:46.491Z,54.73
2022-08-26T08:42:13.236Z,55.22
2022-08-26T08:47:26.877Z,54.74
2022-08-26T08:52:36.024Z,54.57
2022-08-26T08:57:55.524Z,53.88
2022-08-26T09:03:07.391Z,53.28
2022-08-26T09:08:16.564Z,52.44
2022-08-26T09:13:26.048Z,51.93
2022-08-26T09:18:46.185Z,51.93
2022-08-26T09:23:49.727Z,51.23
2022-08-26T09:28:56.736Z,50.76
2022-08-26T09:34:17.535Z,50.29
2022-08-26T09:39:37.727Z,49.16
2022-08-26T09:44:52.603Z,47.55
2022-08-26T09:50:09.683Z,46.06
2022-08-26T09:55:26.946Z,45.02
2022-08-26T10:00:38.420Z,45.08
2022-08-26T10:05:47.749Z,43.80
2022-08-26T10:10:48.921Z,41.15
2022-08-26T10:16:05.551Z,37.76
2022-08-26T10:21:13.958Z,38.35
2022-08-26T10:26:20.836Z,36.02
2022-08-26T10:31:40.160Z,34.28
2022-08-26T10:37:14.845Z,34.44
2022-08-26T10:42:33.394Z,33.62
2022-08-26T10:47:44.472Z,32.96
2022-08-26T10:53:01.299Z,33.41
2022-08-26T10:58:14.334Z,33.07
2022-08-26T11:03:40.902Z,33.24
2022-08-26T11:08:48.934Z,33.24
2022-08-26T11:14:12.426Z,32.76
2022-08-26T11:19:14.514Z,31.34
2022-08-26T11:24:48.369Z,31.50
2022-08-26T11:30:07.919Z,30.45
2022-08-26T11:35:10.116Z,30.69
2022-08-26T11:40:15.819Z,30.28
2022-08-26T11:45:28.435Z,30.05
2022-08-26T11:50:31.330Z,29.94
2022-08-26T11:55:30.365Z,29.66
2022-08-26T12:00:36.197Z,30.43
2022-08-26T12:05:43.724Z,29.64
2022-08-26T12:10:43.532Z,27.77
2022-08-26T12:15:42.150Z,26.71
2022-08-26T12:20:54.036Z,25.97
2022-08-26T12:26:03.279Z,24.51
2022-08-26T12:31:09.838Z,24.37
2022-08-26T12:36:10.593Z,23.33
2022-08-26T12:41:11.132Z,23.13
2022-08-26T12:46:14.975Z,22.56
2022-08-26T12:51:26.180Z,21.94
2022-08-26T12:56:32.723Z,22.03
2022-08-26T13:01:39.931Z,21.28
2022-08-26T13:06:41.044Z,19.67
2022-08-26T13:12:04.101Z,20.12
2022-08-26T13:17:03.272Z,17.78
2022-08-26T13:22:05.307Z,18.00
2022-08-26T13:27:06.042Z,18.85
2022-08-26T13:32:09.290Z,19.03
2022-08-26T13:37:09.414Z,18.12
2022-08-26T13:42:08.661Z,17.07
2022-08-26T13:47:09.896Z,17.96
2022-08-26T13:52:08.922Z,17.73
2022-08-26T13:57:09.431Z,17.76
2022-08-26T14:02:10.638Z,17.36
2022-08-26T14:07:09.352Z,15.93
2022-08-26T14:12:09.578Z,16.29
2022-08-26T14:17:09.794Z,16.31
2022-08-26T14:22:09.141Z,16.01
2022-08-26T14:27:08.621Z,16.42
2022-08-26T14:32:15.475Z,16.97
2022-08-26T14:37:15.537Z,17.46
2022-08-26T14:42:17.539Z,17.72
2022-08-26T14:47:17.235Z,17.10
2022-08-26T14:52:16.532Z,17.54
2022-08-26T14:57:17.813Z,18.38
2022-08-26T15:02:32.595Z,18.82
2022-08-26T15:07:32.774Z,19.04
2022-08-26T15:12:32.609Z,19.29
2022-08-26T15:17:32.003Z,19.53
2022-08-26T15:22:31.549Z,19.34
2022-08-26T15:27:31.361Z,19.65
2022-08-26T15:32:32.374Z,19.55
2022-08-26T15:37:33.191Z,19.83
2022-08-26T15:42:32.476Z,20.17
2022-08-26T15:47:32.606Z,20.52
2022-08-26T15:52:51.249Z,20.80
2022-08-26T15:57:49.592Z,20.99
2022-08-26T16:02:48.980Z,21.18
2022-08-26T16:07:47.451Z,21.49
2022-08-26T16:12:46.949Z,21.53
2022-08-26T16:17:47.055Z,21.63
2022-08-26T16:22:46.494Z,21.73
2022-08-26T16:27:45.801Z,21.99
2022-08-26T16:32:46.637Z,22.46
2022-08-26T16:37:47.582Z,22.63
2022-08-26T16:42:47.207Z,23.12
2022-08-26T16:47:47.717Z,23.70
2022-08-26T16:52:47.211Z,24.35
2022-08-26T16:57:51.708Z,24.92
2022-08-26T17:02:52.069Z,25.59
2022-08-26T17:07:51.930Z,26.11
2022-08-26T17:12:50.899Z,27.02
2022-08-26T17:17:49.336Z,27.96
2022-08-26T17:22:52.577Z,28.50
2022-08-26T17:27:51.449Z,29.37
2022-08-26T17:32:51.204Z,30.08
2022-08-26T17:37:50.856Z,31.22
2022-08-26T17:42:51.341Z,31.81
2022-08-26T17:47:50.598Z,32.45
2022-08-26T17:52:49.830Z,32.82
2022-08-26T17:57:53.424Z,33.45
2022-08-26T18:02:53.093Z,34.23
2022-08-26T18:07:52.480Z,34.76
2022-08-26T18:12:51.607Z,35.45
2022-08-26T18:17:50.299Z,36.31
2022-08-26T18:22:50.953Z,36.68
2022-08-26T18:27:49.790Z,37.16
2022-08-26T18:32:49.369Z,37.72
2022-08-26T18:37:49.335Z,37.85
2022-08-26T18:42:49.284Z,38.42
2022-08-26T18:47:53.881Z,38.85
2022-08-26T18:52:54.315Z,39.83
2022-08-26T18:57:52.927Z,40.01
2022-08-26T19:02:52.432Z,40.49
2022-08-26T19:07:56.777Z,40.56
2022-08-26T19:13:00.097Z,41.11
2022-08-26T19:18:00.438Z,42.29
2022-08-26T19:23:02.663Z,42.41
2022-08-26T19:28:09.505Z,42.83
2022-08-26T19:33:09.950Z,43.45
2022-08-26T19:38:10.686Z,43.76
2022-08-26T19:43:10.273Z,44.38
2022-08-26T19:48:11.528Z,45.00
2022-08-26T19:53:11.012Z,45.37
2022-08-26T19:58:11.766Z,45.88
2022-08-26T20:03:11.768Z,46.44
2022-08-26T20:08:21.864Z,46.83
2022-08-26T20:13:22.175Z,47.19
2022-08-26T20:18:38.517Z,47.47
2022-08-26T20:23:37.476Z,47.94
2022-08-26T20:28:37.294Z,48.32
2022-08-26T20:33:46.022Z,48.91
2022-08-26T20:38:46.529Z,49.11
2022-08-26T20:43:46.295Z,50.03
2022-08-26T20:48:45.810Z,50.92
2022-08-26T20:53:45.397Z,51.19
2022-08-26T20:58:45.050Z,51.59
2022-08-26T21:03:43.890Z,51.66
2022-08-26T21:08:43.429Z,51.91
2022-08-26T21:14:03.748Z,51.97
2022-08-26T21:19:03.292Z,53.04
2022-08-26T21:24:03.103Z,55.52
2022-08-26T21:29:03.956Z,54.39
2022-08-26T21:34:02.517Z,54.82
2022-08-26T21:39:04.461Z,54.62
2022-08-26T21:44:05.955Z,54.42
2022-08-26T21:49:08.729Z,54.77
2022-08-26T21:54:11.264Z,54.84
2022-08-26T21:59:11.225Z,55.29
2022-08-26T22:04:12.457Z,55.37
2022-08-26T22:09:12.540Z,55.23
2022-08-26T22:14:11.884Z,56.15
2022-08-26T22:19:17.003Z,56.24
2022-08-26T22:24:16.879Z,55.80
2022-08-26T22:29:16.268Z,55.98
2022-08-26T22:34:19.793Z,56.49
2022-08-26T22:39:21.547Z,56.58
2022-08-26T22:44:23.013Z,57.13
2022-08-26T22:49:22.422Z,57.07
2022-08-26T22:54:22.192Z,57.14
2022-08-26T22:59:21.404Z,57.48
2022-08-26T23:04:20.678Z,58.26
2022-08-26T23:09:21.307Z,58.28
2022-08-26T23:14:22.220Z,58.75
2022-08-26T23:19:24.154Z,59.03
2022-08-26T23:24:22.750Z,59.33
2022-08-26T23:29:21.083Z,59.63
2022-08-26T23:34:37.631Z,60.08
2022-08-26T23:39:37.735Z,60.42
2022-08-26T23:44:36.896Z,60.88
2022-08-26T23:49:36.683Z,61.42
2022-08-26T23:54:37.098Z,61.85
2022-08-26T23:59:38.000Z,62.36
